sensor_id;sensor_type;location;lat;lon;timestamp;temperature;humidity
47825;DHT22;33589;48.242;14.676;2023-06-22T00:01:56;22.70;68.50
47825;DHT22;33589;48.242;14.676;2023-06-22T00:04:22;22.60;68.20
47825;DHT22;33589;48.242;14.676;2023-06-22T00:06:47;22.60;68.20
47825;DHT22;33589;48.242;14.676;2023-06-22T00:09:13;22.60;68.50
47825;DHT22;33589;48.242;14.676;2023-06-22T00:11:39;22.50;68.50
47825;DHT22;33589;48.242;14.676;2023-06-22T00:14:05;22.40;68.40
47825;DHT22;33589;48.242;14.676;2023-06-22T00:16:33;22.40;68.80
47825;DHT22;33589;48.242;14.676;2023-06-22T00:19:00;22.40;68.70
47825;DHT22;33589;48.242;14.676;2023-06-22T00:21:29;22.40;68.50
47825;DHT22;33589;48.242;14.676;2023-06-22T00:23:55;22.40;68.30
47825;DHT22;33589;48.242;14.676;2023-06-22T00:26:21;22.40;68.40
47825;DHT22;33589;48.242;14.676;2023-06-22T00:28:47;22.40;68.40
47825;DHT22;33589;48.242;14.676;2023-06-22T00:31:13;22.30;68.40
47825;DHT22;33589;48.242;14.676;2023-06-22T00:33:39;22.20;68.50
47825;DHT22;33589;48.242;14.676;2023-06-22T00:36:05;22.10;68.80
47825;DHT22;33589;48.242;14.676;2023-06-22T00:38:33;22.10;69.00
47825;DHT22;33589;48.242;14.676;2023-06-22T00:40:59;22.10;68.80
47825;DHT22;33589;48.242;14.676;2023-06-22T00:43:24;22.10;69.20
47825;DHT22;33589;48.242;14.676;2023-06-22T00:45:50;22.00;69.40
47825;DHT22;33589;48.242;14.676;2023-06-22T00:48:16;22.00;69.50
47825;DHT22;33589;48.242;14.676;2023-06-22T00:50:42;22.00;70.10
47825;DHT22;33589;48.242;14.676;2023-06-22T00:53:09;22.00;69.30
47825;DHT22;33589;48.242;14.676;2023-06-22T00:55:36;22.00;69.50
47825;DHT22;33589;48.242;14.676;2023-06-22T00:58:06;21.90;69.40
47825;DHT22;33589;48.242;14.676;2023-06-22T01:00:36;21.90;69.30
47825;DHT22;33589;48.242;14.676;2023-06-22T01:03:02;21.80;69.70
47825;DHT22;33589;48.242;14.676;2023-06-22T01:05:28;21.80;69.80
47825;DHT22;33589;48.242;14.676;2023-06-22T01:10:47;21.70;70.00
47825;DHT22;33589;48.242;14.676;2023-06-22T01:13:41;21.70;70.10
47825;DHT22;33589;48.242;14.676;2023-06-22T01:16:30;21.70;70.40
47825;DHT22;33589;48.242;14.676;2023-06-22T01:19:01;21.70;69.60
47825;DHT22;33589;48.242;14.676;2023-06-22T01:21:31;21.70;69.70
47825;DHT22;33589;48.242;14.676;2023-06-22T01:24:23;21.70;69.80
47825;DHT22;33589;48.242;14.676;2023-06-22T01:27:02;21.60;69.40
47825;DHT22;33589;48.242;14.676;2023-06-22T01:29:33;21.60;69.80
47825;DHT22;33589;48.242;14.676;2023-06-22T01:32:00;21.60;69.90
47825;DHT22;33589;48.242;14.676;2023-06-22T01:34:29;21.60;70.40
47825;DHT22;33589;48.242;14.676;2023-06-22T01:36:56;21.50;70.20
47825;DHT22;33589;48.242;14.676;2023-06-22T01:39:23;21.50;70.00
47825;DHT22;33589;48.242;14.676;2023-06-22T01:41:53;21.40;70.40
47825;DHT22;33589;48.242;14.676;2023-06-22T01:44:19;21.40;70.40
47825;DHT22;33589;48.242;14.676;2023-06-22T01:46:45;21.40;70.60
47825;DHT22;33589;48.242;14.676;2023-06-22T01:49:13;21.30;70.60
47825;DHT22;33589;48.242;14.676;2023-06-22T01:51:39;21.40;70.60
47825;DHT22;33589;48.242;14.676;2023-06-22T01:54:06;21.40;70.40
47825;DHT22;33589;48.242;14.676;2023-06-22T01:56:32;21.40;70.70
47825;DHT22;33589;48.242;14.676;2023-06-22T01:59:21;21.40;70.70
47825;DHT22;33589;48.242;14.676;2023-06-22T02:01:59;21.50;71.20
47825;DHT22;33589;48.242;14.676;2023-06-22T02:05:10;21.40;71.00
47825;DHT22;33589;48.242;14.676;2023-06-22T02:08:07;21.40;71.10
47825;DHT22;33589;48.242;14.676;2023-06-22T02:10:36;21.40;71.40
47825;DHT22;33589;48.242;14.676;2023-06-22T02:13:06;21.40;71.30
47825;DHT22;33589;48.242;14.676;2023-06-22T02:15:32;21.40;71.20
47825;DHT22;33589;48.242;14.676;2023-06-22T02:17:59;21.40;70.90
47825;DHT22;33589;48.242;14.676;2023-06-22T02:20:25;21.40;71.20
47825;DHT22;33589;48.242;14.676;2023-06-22T02:22:50;21.40;71.30
47825;DHT22;33589;48.242;14.676;2023-06-22T02:25:16;21.40;71.60
47825;DHT22;33589;48.242;14.676;2023-06-22T02:27:44;21.30;71.60
47825;DHT22;33589;48.242;14.676;2023-06-22T02:30:10;21.30;71.40
47825;DHT22;33589;48.242;14.676;2023-06-22T02:32:38;21.30;71.70
47825;DHT22;33589;48.242;14.676;2023-06-22T02:35:10;21.40;71.70
47825;DHT22;33589;48.242;14.676;2023-06-22T02:37:37;21.40;71.80
47825;DHT22;33589;48.242;14.676;2023-06-22T02:40:09;21.40;71.60
47825;DHT22;33589;48.242;14.676;2023-06-22T02:42:37;21.40;71.90
47825;DHT22;33589;48.242;14.676;2023-06-22T02:45:03;21.40;72.10
47825;DHT22;33589;48.242;14.676;2023-06-22T02:47:29;21.40;72.00
47825;DHT22;33589;48.242;14.676;2023-06-22T02:49:55;21.40;72.00
47825;DHT22;33589;48.242;14.676;2023-06-22T02:52:22;21.30;72.20
47825;DHT22;33589;48.242;14.676;2023-06-22T02:54:47;21.40;72.40
47825;DHT22;33589;48.242;14.676;2023-06-22T02:57:14;21.30;72.20
47825;DHT22;33589;48.242;14.676;2023-06-22T02:59:41;21.40;73.00
47825;DHT22;33589;48.242;14.676;2023-06-22T03:02:09;21.30;72.20
47825;DHT22;33589;48.242;14.676;2023-06-22T03:04:35;21.30;72.40
47825;DHT22;33589;48.242;14.676;2023-06-22T03:07:01;21.30;72.50
47825;DHT22;33589;48.242;14.676;2023-06-22T03:09:29;21.30;72.70
47825;DHT22;33589;48.242;14.676;2023-06-22T03:11:56;21.30;73.00
47825;DHT22;33589;48.242;14.676;2023-06-22T03:14:24;21.30;72.90
47825;DHT22;33589;48.242;14.676;2023-06-22T03:16:51;21.30;73.20
47825;DHT22;33589;48.242;14.676;2023-06-22T03:19:18;21.20;73.30
47825;DHT22;33589;48.242;14.676;2023-06-22T03:21:45;21.20;73.30
47825;DHT22;33589;48.242;14.676;2023-06-22T03:24:10;21.20;74.10
47825;DHT22;33589;48.242;14.676;2023-06-22T03:26:37;21.20;73.40
47825;DHT22;33589;48.242;14.676;2023-06-22T03:29:03;21.20;73.40
47825;DHT22;33589;48.242;14.676;2023-06-22T03:31:29;21.20;73.40
47825;DHT22;33589;48.242;14.676;2023-06-22T03:33:55;21.10;73.40
47825;DHT22;33589;48.242;14.676;2023-06-22T03:36:22;21.10;73.60
47825;DHT22;33589;48.242;14.676;2023-06-22T03:38:49;21.10;73.80
47825;DHT22;33589;48.242;14.676;2023-06-22T03:41:15;21.10;73.90
47825;DHT22;33589;48.242;14.676;2023-06-22T03:43:42;21.20;74.20
47825;DHT22;33589;48.242;14.676;2023-06-22T03:46:07;21.00;74.00
47825;DHT22;33589;48.242;14.676;2023-06-22T03:48:33;21.00;74.50
47825;DHT22;33589;48.242;14.676;2023-06-22T03:51:00;21.00;74.80
47825;DHT22;33589;48.242;14.676;2023-06-22T03:53:27;21.00;74.50
47825;DHT22;33589;48.242;14.676;2023-06-22T03:55:53;21.00;74.40
47825;DHT22;33589;48.242;14.676;2023-06-22T03:58:19;21.00;74.70
47825;DHT22;33589;48.242;14.676;2023-06-22T04:00:53;20.90;74.70
47825;DHT22;33589;48.242;14.676;2023-06-22T04:03:18;20.90;75.20
47825;DHT22;33589;48.242;14.676;2023-06-22T04:05:45;20.80;75.10
47825;DHT22;33589;48.242;14.676;2023-06-22T04:08:12;20.90;75.20
47825;DHT22;33589;48.242;14.676;2023-06-22T04:10:38;20.90;75.30
47825;DHT22;33589;48.242;14.676;2023-06-22T04:13:03;20.80;75.40
47825;DHT22;33589;48.242;14.676;2023-06-22T04:15:29;20.90;75.50
47825;DHT22;33589;48.242;14.676;2023-06-22T04:17:55;20.90;75.50
47825;DHT22;33589;48.242;14.676;2023-06-22T04:20:21;21.00;75.40
47825;DHT22;33589;48.242;14.676;2023-06-22T04:22:47;21.00;75.50
47825;DHT22;33589;48.242;14.676;2023-06-22T04:25:14;21.10;75.50
47825;DHT22;33589;48.242;14.676;2023-06-22T04:27:39;21.20;75.40
47825;DHT22;33589;48.242;14.676;2023-06-22T04:30:08;21.20;75.10
47825;DHT22;33589;48.242;14.676;2023-06-22T04:32:34;21.20;75.20
47825;DHT22;33589;48.242;14.676;2023-06-22T04:35:03;21.20;75.40
47825;DHT22;33589;48.242;14.676;2023-06-22T04:37:33;21.20;75.70
47825;DHT22;33589;48.242;14.676;2023-06-22T04:39:59;21.20;76.00
47825;DHT22;33589;48.242;14.676;2023-06-22T04:42:27;21.20;76.20
47825;DHT22;33589;48.242;14.676;2023-06-22T04:44:53;21.20;76.20
47825;DHT22;33589;48.242;14.676;2023-06-22T04:47:19;21.30;76.20
47825;DHT22;33589;48.242;14.676;2023-06-22T04:49:45;21.30;76.20
47825;DHT22;33589;48.242;14.676;2023-06-22T04:52:12;21.40;76.30
47825;DHT22;33589;48.242;14.676;2023-06-22T04:54:39;21.40;76.30
47825;DHT22;33589;48.242;14.676;2023-06-22T04:57:07;21.40;76.40
47825;DHT22;33589;48.242;14.676;2023-06-22T04:59:37;21.40;76.50
47825;DHT22;33589;48.242;14.676;2023-06-22T05:02:05;21.40;77.00
47825;DHT22;33589;48.242;14.676;2023-06-22T05:04:31;21.40;76.80
47825;DHT22;33589;48.242;14.676;2023-06-22T05:06:58;21.30;77.50
47825;DHT22;33589;48.242;14.676;2023-06-22T05:09:24;21.30;77.60
47825;DHT22;33589;48.242;14.676;2023-06-22T05:11:51;21.30;78.70
47825;DHT22;33589;48.242;14.676;2023-06-22T05:14:16;21.30;78.10
47825;DHT22;33589;48.242;14.676;2023-06-22T05:16:42;21.40;78.40
47825;DHT22;33589;48.242;14.676;2023-06-22T05:19:09;21.40;78.30
47825;DHT22;33589;48.242;14.676;2023-06-22T05:21:34;21.50;78.40
47825;DHT22;33589;48.242;14.676;2023-06-22T05:24:00;21.60;78.40
47825;DHT22;33589;48.242;14.676;2023-06-22T05:26:31;21.70;78.20
47825;DHT22;33589;48.242;14.676;2023-06-22T05:28:58;21.70;78.10
47825;DHT22;33589;48.242;14.676;2023-06-22T05:31:24;21.80;78.30
47825;DHT22;33589;48.242;14.676;2023-06-22T05:33:52;21.90;78.30
47825;DHT22;33589;48.242;14.676;2023-06-22T05:36:18;21.80;78.40
47825;DHT22;33589;48.242;14.676;2023-06-22T05:38:50;21.80;78.60
47825;DHT22;33589;48.242;14.676;2023-06-22T05:41:16;21.80;78.90
47825;DHT22;33589;48.242;14.676;2023-06-22T05:43:42;21.70;79.10
47825;DHT22;33589;48.242;14.676;2023-06-22T05:46:07;21.70;79.50
47825;DHT22;33589;48.242;14.676;2023-06-22T05:48:33;21.70;80.40
47825;DHT22;33589;48.242;14.676;2023-06-22T05:50:59;21.50;80.80
47825;DHT22;33589;48.242;14.676;2023-06-22T05:53:24;21.60;81.00
47825;DHT22;33589;48.242;14.676;2023-06-22T05:55:50;21.60;81.10
47825;DHT22;33589;48.242;14.676;2023-06-22T05:58:16;21.60;81.90
47825;DHT22;33589;48.242;14.676;2023-06-22T06:00:42;21.50;82.10
47825;DHT22;33589;48.242;14.676;2023-06-22T06:03:09;21.60;82.50
47825;DHT22;33589;48.242;14.676;2023-06-22T06:05:35;21.50;82.00
47825;DHT22;33589;48.242;14.676;2023-06-22T06:08:03;21.50;82.60
47825;DHT22;33589;48.242;14.676;2023-06-22T06:10:30;21.50;83.10
47825;DHT22;33589;48.242;14.676;2023-06-22T06:12:56;21.50;83.60
47825;DHT22;33589;48.242;14.676;2023-06-22T06:15:22;21.60;83.80
47825;DHT22;33589;48.242;14.676;2023-06-22T06:17:50;21.60;83.90
47825;DHT22;33589;48.242;14.676;2023-06-22T06:20:19;21.70;83.80
47825;DHT22;33589;48.242;14.676;2023-06-22T06:22:45;21.80;83.90
47825;DHT22;33589;48.242;14.676;2023-06-22T06:25:11;21.90;83.30
47825;DHT22;33589;48.242;14.676;2023-06-22T06:27:42;22.00;83.00
47825;DHT22;33589;48.242;14.676;2023-06-22T06:30:09;22.10;82.80
47825;DHT22;33589;48.242;14.676;2023-06-22T06:32:35;22.20;82.40
47825;DHT22;33589;48.242;14.676;2023-06-22T06:35:01;22.20;82.40
47825;DHT22;33589;48.242;14.676;2023-06-22T06:37:26;22.30;82.40
47825;DHT22;33589;48.242;14.676;2023-06-22T06:39:53;22.30;82.40
47825;DHT22;33589;48.242;14.676;2023-06-22T06:42:18;22.30;83.10
47825;DHT22;33589;48.242;14.676;2023-06-22T06:44:45;22.30;83.10
47825;DHT22;33589;48.242;14.676;2023-06-22T06:47:11;22.30;83.30
47825;DHT22;33589;48.242;14.676;2023-06-22T06:49:36;22.30;84.10
47825;DHT22;33589;48.242;14.676;2023-06-22T06:52:02;22.30;84.00
47825;DHT22;33589;48.242;14.676;2023-06-22T06:54:27;22.40;84.20
47825;DHT22;33589;48.242;14.676;2023-06-22T06:56:53;22.40;84.00
47825;DHT22;33589;48.242;14.676;2023-06-22T06:59:19;22.50;84.00
47825;DHT22;33589;48.242;14.676;2023-06-22T07:01:44;22.40;84.90
47825;DHT22;33589;48.242;14.676;2023-06-22T07:04:10;22.50;84.60
47825;DHT22;33589;48.242;14.676;2023-06-22T07:06:36;22.50;84.30
47825;DHT22;33589;48.242;14.676;2023-06-22T07:09:03;22.50;83.70
47825;DHT22;33589;48.242;14.676;2023-06-22T07:11:29;22.50;83.50
47825;DHT22;33589;48.242;14.676;2023-06-22T07:13:54;22.50;84.00
47825;DHT22;33589;48.242;14.676;2023-06-22T07:16:20;22.50;84.10
47825;DHT22;33589;48.242;14.676;2023-06-22T07:18:46;22.50;84.20
47825;DHT22;33589;48.242;14.676;2023-06-22T07:21:12;22.50;84.40
47825;DHT22;33589;48.242;14.676;2023-06-22T07:23:37;22.50;85.20
47825;DHT22;33589;48.242;14.676;2023-06-22T07:26:03;22.50;84.80
47825;DHT22;33589;48.242;14.676;2023-06-22T07:28:31;22.50;85.10
47825;DHT22;33589;48.242;14.676;2023-06-22T07:31:02;22.60;85.60
47825;DHT22;33589;48.242;14.676;2023-06-22T07:33:29;22.70;86.80
47825;DHT22;33589;48.242;14.676;2023-06-22T07:35:54;22.70;86.20
47825;DHT22;33589;48.242;14.676;2023-06-22T07:38:20;22.80;85.90
47825;DHT22;33589;48.242;14.676;2023-06-22T07:40:46;22.80;87.10
47825;DHT22;33589;48.242;14.676;2023-06-22T07:43:11;23.00;86.40
47825;DHT22;33589;48.242;14.676;2023-06-22T07:45:38;23.00;85.40
47825;DHT22;33589;48.242;14.676;2023-06-22T07:48:04;23.20;84.70
47825;DHT22;33589;48.242;14.676;2023-06-22T07:50:30;23.30;84.40
47825;DHT22;33589;48.242;14.676;2023-06-22T07:52:56;23.30;84.40
47825;DHT22;33589;48.242;14.676;2023-06-22T07:55:22;23.40;84.40
47825;DHT22;33589;48.242;14.676;2023-06-22T07:57:49;23.50;84.30
47825;DHT22;33589;48.242;14.676;2023-06-22T08:00:14;23.50;83.90
47825;DHT22;33589;48.242;14.676;2023-06-22T08:02:44;23.60;83.90
47825;DHT22;33589;48.242;14.676;2023-06-22T08:05:10;23.60;83.60
47825;DHT22;33589;48.242;14.676;2023-06-22T08:07:36;23.70;83.30
47825;DHT22;33589;48.242;14.676;2023-06-22T08:10:10;23.90;84.00
47825;DHT22;33589;48.242;14.676;2023-06-22T08:12:35;24.10;82.90
47825;DHT22;33589;48.242;14.676;2023-06-22T08:15:01;24.20;82.50
47825;DHT22;33589;48.242;14.676;2023-06-22T08:17:27;24.30;82.30
47825;DHT22;33589;48.242;14.676;2023-06-22T08:19:52;24.40;81.20
47825;DHT22;33589;48.242;14.676;2023-06-22T08:22:18;24.50;80.10
47825;DHT22;33589;48.242;14.676;2023-06-22T08:24:44;24.60;80.00
47825;DHT22;33589;48.242;14.676;2023-06-22T08:27:10;24.70;80.40
47825;DHT22;33589;48.242;14.676;2023-06-22T08:29:40;24.80;79.60
47825;DHT22;33589;48.242;14.676;2023-06-22T08:32:09;24.80;78.80
47825;DHT22;33589;48.242;14.676;2023-06-22T08:34:35;25.00;78.40
47825;DHT22;33589;48.242;14.676;2023-06-22T08:37:00;25.10;78.50
47825;DHT22;33589;48.242;14.676;2023-06-22T08:39:26;25.10;78.20
47825;DHT22;33589;48.242;14.676;2023-06-22T08:41:53;25.10;77.40
47825;DHT22;33589;48.242;14.676;2023-06-22T08:44:18;25.10;76.90
47825;DHT22;33589;48.242;14.676;2023-06-22T08:46:45;24.80;78.20
47825;DHT22;33589;48.242;14.676;2023-06-22T08:49:10;24.80;78.70
47825;DHT22;33589;48.242;14.676;2023-06-22T08:51:36;25.00;77.00
47825;DHT22;33589;48.242;14.676;2023-06-22T08:54:04;25.00;76.90
47825;DHT22;33589;48.242;14.676;2023-06-22T08:56:30;25.00;76.70
47825;DHT22;33589;48.242;14.676;2023-06-22T08:58:56;24.80;76.20
47825;DHT22;33589;48.242;14.676;2023-06-22T09:01:22;24.70;76.30
47825;DHT22;33589;48.242;14.676;2023-06-22T09:03:47;24.50;76.60
47825;DHT22;33589;48.242;14.676;2023-06-22T09:06:20;24.50;77.00
47825;DHT22;33589;48.242;14.676;2023-06-22T09:08:47;24.40;76.90
47825;DHT22;33589;48.242;14.676;2023-06-22T09:11:13;24.40;77.40
47825;DHT22;33589;48.242;14.676;2023-06-22T09:13:38;24.50;78.10
47825;DHT22;33589;48.242;14.676;2023-06-22T09:16:04;24.60;78.10
47825;DHT22;33589;48.242;14.676;2023-06-22T09:18:30;24.60;77.80
47825;DHT22;33589;48.242;14.676;2023-06-22T09:20:56;24.60;77.10
47825;DHT22;33589;48.242;14.676;2023-06-22T09:23:21;24.50;77.20
47825;DHT22;33589;48.242;14.676;2023-06-22T09:25:47;24.40;77.60
47825;DHT22;33589;48.242;14.676;2023-06-22T09:28:14;24.40;78.30
47825;DHT22;33589;48.242;14.676;2023-06-22T09:30:40;24.40;78.70
47825;DHT22;33589;48.242;14.676;2023-06-22T09:33:06;24.50;78.80
47825;DHT22;33589;48.242;14.676;2023-06-22T09:35:31;24.50;78.80
47825;DHT22;33589;48.242;14.676;2023-06-22T09:37:57;24.60;78.70
47825;DHT22;33589;48.242;14.676;2023-06-22T09:40:23;24.60;78.80
47825;DHT22;33589;48.242;14.676;2023-06-22T09:42:48;24.50;79.30
47825;DHT22;33589;48.242;14.676;2023-06-22T09:45:14;24.60;79.90
47825;DHT22;33589;48.242;14.676;2023-06-22T09:47:39;24.60;79.10
47825;DHT22;33589;48.242;14.676;2023-06-22T09:50:05;24.60;78.80
47825;DHT22;33589;48.242;14.676;2023-06-22T09:52:31;24.60;78.60
47825;DHT22;33589;48.242;14.676;2023-06-22T09:54:57;24.60;78.50
47825;DHT22;33589;48.242;14.676;2023-06-22T09:57:23;24.70;78.50
47825;DHT22;33589;48.242;14.676;2023-06-22T09:59:48;24.60;78.10
47825;DHT22;33589;48.242;14.676;2023-06-22T10:02:14;24.50;78.80
47825;DHT22;33589;48.242;14.676;2023-06-22T10:04:39;24.50;79.20
47825;DHT22;33589;48.242;14.676;2023-06-22T10:07:05;24.40;79.50
47825;DHT22;33589;48.242;14.676;2023-06-22T10:09:31;24.40;79.30
47825;DHT22;33589;48.242;14.676;2023-06-22T10:11:57;24.30;79.90
47825;DHT22;33589;48.242;14.676;2023-06-22T10:14:23;24.20;79.80
47825;DHT22;33589;48.242;14.676;2023-06-22T10:16:52;24.20;80.00
47825;DHT22;33589;48.242;14.676;2023-06-22T10:19:17;24.00;80.80
47825;DHT22;33589;48.242;14.676;2023-06-22T10:21:43;24.00;81.30
47825;DHT22;33589;48.242;14.676;2023-06-22T10:24:09;24.00;81.70
47825;DHT22;33589;48.242;14.676;2023-06-22T10:26:35;24.00;81.50
47825;DHT22;33589;48.242;14.676;2023-06-22T10:29:02;24.00;81.10
47825;DHT22;33589;48.242;14.676;2023-06-22T10:31:28;24.00;81.30
47825;DHT22;33589;48.242;14.676;2023-06-22T10:33:54;24.10;81.70
47825;DHT22;33589;48.242;14.676;2023-06-22T10:36:21;24.20;81.70
47825;DHT22;33589;48.242;14.676;2023-06-22T10:38:47;24.30;81.60
47825;DHT22;33589;48.242;14.676;2023-06-22T10:41:13;24.40;81.10
47825;DHT22;33589;48.242;14.676;2023-06-22T10:43:39;24.50;81.00
47825;DHT22;33589;48.242;14.676;2023-06-22T10:46:06;24.60;81.20
47825;DHT22;33589;48.242;14.676;2023-06-22T10:48:31;24.70;81.40
47825;DHT22;33589;48.242;14.676;2023-06-22T10:50:57;24.80;81.70
47825;DHT22;33589;48.242;14.676;2023-06-22T10:53:23;24.90;81.10
47825;DHT22;33589;48.242;14.676;2023-06-22T10:55:48;24.90;81.50
47825;DHT22;33589;48.242;14.676;2023-06-22T10:58:14;24.80;81.90
47825;DHT22;33589;48.242;14.676;2023-06-22T11:00:40;24.80;81.60
47825;DHT22;33589;48.242;14.676;2023-06-22T11:03:05;24.70;81.30
47825;DHT22;33589;48.242;14.676;2023-06-22T11:05:31;24.70;82.20
47825;DHT22;33589;48.242;14.676;2023-06-22T11:07:57;24.80;81.60
47825;DHT22;33589;48.242;14.676;2023-06-22T11:10:23;24.80;81.80
47825;DHT22;33589;48.242;14.676;2023-06-22T11:12:49;24.90;82.50
47825;DHT22;33589;48.242;14.676;2023-06-22T11:15:14;25.00;83.20
47825;DHT22;33589;48.242;14.676;2023-06-22T11:17:40;25.00;82.90
47825;DHT22;33589;48.242;14.676;2023-06-22T11:20:06;25.10;82.70
47825;DHT22;33589;48.242;14.676;2023-06-22T11:22:37;25.00;82.60
47825;DHT22;33589;48.242;14.676;2023-06-22T11:25:05;25.00;83.30
47825;DHT22;33589;48.242;14.676;2023-06-22T11:27:31;24.90;83.10
47825;DHT22;33589;48.242;14.676;2023-06-22T11:29:56;25.00;82.40
47825;DHT22;33589;48.242;14.676;2023-06-22T11:32:23;24.90;82.30
47825;DHT22;33589;48.242;14.676;2023-06-22T11:34:48;24.80;82.50
47825;DHT22;33589;48.242;14.676;2023-06-22T11:37:14;24.90;81.20
47825;DHT22;33589;48.242;14.676;2023-06-22T11:39:41;25.00;81.20
47825;DHT22;33589;48.242;14.676;2023-06-22T11:42:07;25.10;81.40
47825;DHT22;33589;48.242;14.676;2023-06-22T11:44:33;25.10;80.40
47825;DHT22;33589;48.242;14.676;2023-06-22T11:46:58;25.10;80.90
47825;DHT22;33589;48.242;14.676;2023-06-22T11:49:26;25.00;79.80
47825;DHT22;33589;48.242;14.676;2023-06-22T11:51:52;24.80;81.10
47825;DHT22;33589;48.242;14.676;2023-06-22T11:54:18;24.80;80.20
47825;DHT22;33589;48.242;14.676;2023-06-22T11:56:43;24.70;78.90
47825;DHT22;33589;48.242;14.676;2023-06-22T11:59:09;24.70;77.90
47825;DHT22;33589;48.242;14.676;2023-06-22T12:01:34;24.80;77.70
47825;DHT22;33589;48.242;14.676;2023-06-22T12:04:00;24.90;77.70
47825;DHT22;33589;48.242;14.676;2023-06-22T12:06:26;25.00;77.90
47825;DHT22;33589;48.242;14.676;2023-06-22T12:08:51;25.10;78.00
47825;DHT22;33589;48.242;14.676;2023-06-22T12:11:17;25.30;78.20
47825;DHT22;33589;48.242;14.676;2023-06-22T12:13:43;25.50;76.20
47825;DHT22;33589;48.242;14.676;2023-06-22T12:16:08;25.60;75.40
47825;DHT22;33589;48.242;14.676;2023-06-22T12:18:34;25.60;74.50
47825;DHT22;33589;48.242;14.676;2023-06-22T12:21:00;25.70;75.00
47825;DHT22;33589;48.242;14.676;2023-06-22T12:23:25;25.80;74.50
47825;DHT22;33589;48.242;14.676;2023-06-22T12:25:51;26.00;72.90
47825;DHT22;33589;48.242;14.676;2023-06-22T12:28:16;26.20;71.60
47825;DHT22;33589;48.242;14.676;2023-06-22T12:30:42;26.40;70.80
47825;DHT22;33589;48.242;14.676;2023-06-22T12:33:08;26.60;69.90
47825;DHT22;33589;48.242;14.676;2023-06-22T12:35:34;26.80;70.10
47825;DHT22;33589;48.242;14.676;2023-06-22T12:38:00;27.00;67.70
47825;DHT22;33589;48.242;14.676;2023-06-22T12:40:25;27.20;67.40
47825;DHT22;33589;48.242;14.676;2023-06-22T12:42:51;27.30;68.30
47825;DHT22;33589;48.242;14.676;2023-06-22T12:45:17;27.50;66.30
47825;DHT22;33589;48.242;14.676;2023-06-22T12:47:42;27.60;66.10
47825;DHT22;33589;48.242;14.676;2023-06-22T12:50:08;27.60;64.80
47825;DHT22;33589;48.242;14.676;2023-06-22T12:52:36;27.60;63.50
47825;DHT22;33589;48.242;14.676;2023-06-22T12:55:05;27.60;62.40
47825;DHT22;33589;48.242;14.676;2023-06-22T12:57:31;27.50;63.70
47825;DHT22;33589;48.242;14.676;2023-06-22T12:59:56;27.50;63.00
47825;DHT22;33589;48.242;14.676;2023-06-22T13:02:23;27.40;63.90
47825;DHT22;33589;48.242;14.676;2023-06-22T13:04:49;27.30;61.80
47825;DHT22;33589;48.242;14.676;2023-06-22T13:07:15;27.20;60.60
47825;DHT22;33589;48.242;14.676;2023-06-22T13:09:40;27.00;61.00
47825;DHT22;33589;48.242;14.676;2023-06-22T13:12:06;27.00;61.90
47825;DHT22;33589;48.242;14.676;2023-06-22T13:14:32;26.90;62.40
47825;DHT22;33589;48.242;14.676;2023-06-22T13:16:58;26.90;63.30
47825;DHT22;33589;48.242;14.676;2023-06-22T13:19:23;26.90;64.20
47825;DHT22;33589;48.242;14.676;2023-06-22T13:21:50;27.00;64.00
47825;DHT22;33589;48.242;14.676;2023-06-22T13:24:15;27.20;62.20
47825;DHT22;33589;48.242;14.676;2023-06-22T13:26:41;27.30;62.40
47825;DHT22;33589;48.242;14.676;2023-06-22T13:29:07;27.30;62.60
47825;DHT22;33589;48.242;14.676;2023-06-22T13:31:33;27.30;63.60
47825;DHT22;33589;48.242;14.676;2023-06-22T13:33:58;27.40;63.20
47825;DHT22;33589;48.242;14.676;2023-06-22T13:36:24;27.50;63.40
47825;DHT22;33589;48.242;14.676;2023-06-22T13:38:50;27.50;63.00
47825;DHT22;33589;48.242;14.676;2023-06-22T13:41:15;27.60;62.50
47825;DHT22;33589;48.242;14.676;2023-06-22T13:43:41;27.70;61.50
47825;DHT22;33589;48.242;14.676;2023-06-22T13:46:07;27.60;58.70
47825;DHT22;33589;48.242;14.676;2023-06-22T13:48:32;27.60;59.60
47825;DHT22;33589;48.242;14.676;2023-06-22T13:50:58;27.50;60.00
47825;DHT22;33589;48.242;14.676;2023-06-22T13:53:25;27.40;60.60
47825;DHT22;33589;48.242;14.676;2023-06-22T13:55:51;27.30;60.40
47825;DHT22;33589;48.242;14.676;2023-06-22T13:58:17;27.20;61.10
47825;DHT22;33589;48.242;14.676;2023-06-22T14:00:45;27.20;61.20
47825;DHT22;33589;48.242;14.676;2023-06-22T14:03:10;27.30;61.10
47825;DHT22;33589;48.242;14.676;2023-06-22T14:05:36;27.30;60.70
47825;DHT22;33589;48.242;14.676;2023-06-22T14:08:02;27.40;60.70
47825;DHT22;33589;48.242;14.676;2023-06-22T14:10:27;27.50;57.90
47825;DHT22;33589;48.242;14.676;2023-06-22T14:12:53;27.50;56.20
47825;DHT22;33589;48.242;14.676;2023-06-22T14:15:19;27.60;54.90
47825;DHT22;33589;48.242;14.676;2023-06-22T14:17:44;27.70;54.10
47825;DHT22;33589;48.242;14.676;2023-06-22T14:20:10;27.80;54.30
47825;DHT22;33589;48.242;14.676;2023-06-22T14:22:36;27.80;53.00
47825;DHT22;33589;48.242;14.676;2023-06-22T14:25:02;27.90;53.10
47825;DHT22;33589;48.242;14.676;2023-06-22T14:27:28;27.80;52.50
47825;DHT22;33589;48.242;14.676;2023-06-22T14:29:53;27.80;51.70
47825;DHT22;33589;48.242;14.676;2023-06-22T14:32:19;27.90;51.50
47825;DHT22;33589;48.242;14.676;2023-06-22T14:34:45;27.90;50.10
47825;DHT22;33589;48.242;14.676;2023-06-22T14:37:10;27.90;49.30
47825;DHT22;33589;48.242;14.676;2023-06-22T14:39:38;28.00;49.40
47825;DHT22;33589;48.242;14.676;2023-06-22T14:42:05;27.90;50.00
47825;DHT22;33589;48.242;14.676;2023-06-22T14:44:31;27.90;48.20
47825;DHT22;33589;48.242;14.676;2023-06-22T14:46:56;27.70;48.30
47825;DHT22;33589;48.242;14.676;2023-06-22T14:49:22;27.50;48.80
47825;DHT22;33589;48.242;14.676;2023-06-22T14:51:48;27.50;48.80
47825;DHT22;33589;48.242;14.676;2023-06-22T14:54:14;27.40;49.50
47825;DHT22;33589;48.242;14.676;2023-06-22T14:56:40;27.20;50.10
47825;DHT22;33589;48.242;14.676;2023-06-22T14:59:06;27.10;50.10
47825;DHT22;33589;48.242;14.676;2023-06-22T15:01:31;26.90;49.10
47825;DHT22;33589;48.242;14.676;2023-06-22T15:03:57;26.70;50.00
47825;DHT22;33589;48.242;14.676;2023-06-22T15:06:22;26.20;60.00
47825;DHT22;33589;48.242;14.676;2023-06-22T15:08:48;25.20;63.30
47825;DHT22;33589;48.242;14.676;2023-06-22T15:11:14;24.50;64.40
47825;DHT22;33589;48.242;14.676;2023-06-22T15:13:40;23.80;67.30
47825;DHT22;33589;48.242;14.676;2023-06-22T15:16:07;23.30;68.60